Time,TemperatureF,DewpointF,PressureIn,WindDirection,WindDirectionDegrees,WindSpeedMPH,WindSpeedGustMPH,Humidity,HourlyPrecipIn,Conditions,Clouds,dailyrainin,SolarRadiationWatts/m^2,SoftwareType,DateUTC
2013-11-14 00:11:00,34.0,33.0,-100.00,SW,231,20.0,32.0,98,0.00,,,0.36,0.000000,,2013-11-14 09:11:00,
2013-11-14 00:21:00,34.0,33.0,-100.00,SW,231,20.0,32.0,98,0.00,,,0.36,0.000000,,2013-11-14 09:21:00,
2013-11-14 00:33:00,34.0,33.0,-100.00,SW,231,20.0,32.0,98,0.00,,,0.36,0.000000,,2013-11-14 09:33:00,
2013-11-14 01:12:00,34.0,34.0,-100.00,SW,221,22.0,25.0,98,0.00,,,0.36,0.000000,,2013-11-14 10:12:00,
2013-11-14 01:23:00,34.0,34.0,-100.00,SW,221,22.0,25.0,98,0.00,,,0.36,0.000000,,2013-11-14 10:23:00,
2013-11-14 01:33:00,34.0,34.0,-100.00,SW,221,22.0,25.0,98,0.00,,,0.36,0.000000,,2013-11-14 10:33:00,
2013-11-14 01:42:00,34.0,34.0,-100.00,SW,221,22.0,25.0,98,0.00,,,0.36,0.000000,,2013-11-14 10:42:00,
2013-11-14 02:11:00,35.0,34.0,-100.00,SW,220,20.0,32.0,97,0.00,,,0.36,0.000000,,2013-11-14 11:11:00,
2013-11-14 02:21:00,35.0,34.0,-100.00,SW,220,20.0,32.0,97,0.00,,,0.36,0.000000,,2013-11-14 11:21:00,
2013-11-14 02:32:00,35.0,34.0,-100.00,SW,220,20.0,32.0,97,0.00,,,0.36,0.000000,,2013-11-14 11:32:00,
2013-11-14 02:42:00,35.0,34.0,-100.00,SW,220,20.0,32.0,97,0.00,,,0.36,0.000000,,2013-11-14 11:42:00,
2013-11-14 03:12:00,36.0,30.0,-100.00,West,268,7.0,31.0,80,0.00,,,0.36,0.000000,,2013-11-14 12:12:00,
2013-11-14 03:21:00,36.0,30.0,-100.00,West,268,7.0,31.0,80,0.00,,,0.36,0.000000,,2013-11-14 12:21:00,
2013-11-14 03:32:00,36.0,30.0,-100.00,West,268,7.0,31.0,80,0.00,,,0.36,0.000000,,2013-11-14 12:32:00,
2013-11-14 03:41:00,36.0,30.0,-100.00,West,268,7.0,31.0,80,0.00,,,0.36,0.000000,,2013-11-14 12:41:00,
2013-11-14 04:11:00,34.0,27.0,-100.00,WSW,238,14.0,29.0,75,0.00,,,0.36,0.000000,,2013-11-14 13:11:00,
2013-11-14 04:22:00,34.0,27.0,-100.00,WSW,238,14.0,29.0,75,0.00,,,0.36,0.000000,,2013-11-14 13:22:00,
2013-11-14 04:32:00,34.0,27.0,-100.00,WSW,238,14.0,29.0,75,0.00,,,0.36,0.000000,,2013-11-14 13:32:00,
2013-11-14 04:41:00,34.0,27.0,-100.00,WSW,238,14.0,29.0,75,0.00,,,0.36,0.000000,,2013-11-14 13:41:00,
2013-11-14 05:11:00,37.0,25.0,-100.00,West,271,14.0,22.0,60,0.00,,,0.36,0.000000,,2013-11-14 14:11:00,
2013-11-14 05:22:00,37.0,25.0,-100.00,West,271,14.0,22.0,60,0.00,,,0.36,0.000000,,2013-11-14 14:22:00,
2013-11-14 05:32:00,37.0,25.0,-100.00,West,271,14.0,22.0,60,0.00,,,0.36,0.000000,,2013-11-14 14:32:00,
2013-11-14 05:41:00,37.0,25.0,-100.00,West,271,14.0,22.0,60,0.00,,,0.36,0.000000,,2013-11-14 14:41:00,
2013-11-14 06:11:00,36.0,26.0,-100.00,WSW,256,21.0,22.0,66,0.02,,,0.38,0.000000,,2013-11-14 15:11:00,
2013-11-14 06:21:00,36.0,26.0,-100.00,WSW,256,21.0,22.0,66,0.02,,,0.38,0.000000,,2013-11-14 15:21:00,
2013-11-14 06:33:00,36.0,26.0,-100.00,WSW,256,21.0,22.0,66,0.02,,,0.38,0.000000,,2013-11-14 15:33:00,
2013-11-14 06:42:00,36.0,26.0,-100.00,WSW,256,21.0,22.0,66,0.02,,,0.38,0.000000,,2013-11-14 15:42:00,
2013-11-14 07:13:00,32.0,27.0,-100.00,WNW,297,23.0,40.0,80,0.01,,,0.39,0.000000,,2013-11-14 16:13:00,
2013-11-14 07:23:00,32.0,27.0,-100.00,WNW,297,23.0,40.0,80,0.01,,,0.39,0.000000,,2013-11-14 16:23:00,
2013-11-14 07:33:00,32.0,27.0,-100.00,WNW,297,23.0,40.0,80,0.01,,,0.39,0.000000,,2013-11-14 16:33:00,
2013-11-14 07:42:00,32.0,27.0,-100.00,WNW,297,23.0,40.0,80,0.01,,,0.39,0.000000,,2013-11-14 16:42:00,
2013-11-14 08:12:00,31.0,28.0,-100.00,WNW,290,26.0,29.0,88,0.00,,,0.39,0.000000,,2013-11-14 17:12:00,
2013-11-14 08:22:00,31.0,28.0,-100.00,WNW,290,26.0,29.0,88,0.00,,,0.39,0.000000,,2013-11-14 17:22:00,
2013-11-14 08:32:00,31.0,28.0,-100.00,WNW,290,26.0,29.0,88,0.00,,,0.39,0.000000,,2013-11-14 17:32:00,
2013-11-14 08:42:00,31.0,28.0,-100.00,WNW,290,26.0,29.0,88,0.00,,,0.39,0.000000,,2013-11-14 17:42:00,
2013-11-14 09:12:00,32.0,27.0,-100.00,WNW,288,20.0,30.0,82,0.00,,,0.39,0.000000,,2013-11-14 18:12:00,
2013-11-14 09:21:00,32.0,27.0,-100.00,WNW,288,20.0,30.0,82,0.00,,,0.39,0.000000,,2013-11-14 18:21:00,
2013-11-14 09:32:00,32.0,27.0,-100.00,WNW,288,20.0,30.0,82,0.00,,,0.39,0.000000,,2013-11-14 18:32:00,
2013-11-14 09:42:00,32.0,27.0,-100.00,WNW,288,20.0,30.0,82,0.00,,,0.39,0.000000,,2013-11-14 18:42:00,
2013-11-14 10:11:00,31.0,25.0,-100.00,WNW,295,30.0,32.0,77,0.00,,,0.39,8.000000,,2013-11-14 19:11:00,
2013-11-14 10:21:00,31.0,25.0,-100.00,WNW,295,30.0,32.0,77,0.00,,,0.39,8.000000,,2013-11-14 19:21:00,
2013-11-14 10:31:00,31.0,25.0,-100.00,WNW,295,30.0,32.0,77,0.00,,,0.39,8.000000,,2013-11-14 19:31:00,
2013-11-14 10:41:00,31.0,25.0,-100.00,WNW,295,30.0,32.0,77,0.00,,,0.39,8.000000,,2013-11-14 19:41:00,
2013-11-14 11:12:00,31.0,24.0,-100.00,WNW,297,35.0,45.0,74,0.01,,,0.40,43.200001,,2013-11-14 20:12:00,
2013-11-14 11:22:00,31.0,24.0,-100.00,WNW,297,35.0,45.0,74,0.01,,,0.40,43.200001,,2013-11-14 20:22:00,
2013-11-14 11:32:00,31.0,24.0,-100.00,WNW,297,35.0,45.0,74,0.01,,,0.40,43.200001,,2013-11-14 20:32:00,
2013-11-14 11:41:00,31.0,24.0,-100.00,WNW,297,35.0,45.0,74,0.01,,,0.40,43.200001,,2013-11-14 20:41:00,
2013-11-14 11:43:00,30.0,20.0,-100.00,WNW,293,35.0,47.0,66,0.01,,,0.41,70.699997,,2013-11-14 20:43:00,
2013-11-14 12:11:00,30.0,20.0,-100.00,WNW,293,35.0,47.0,66,0.01,,,0.41,70.699997,,2013-11-14 21:11:00,
2013-11-14 12:22:00,30.0,20.0,-100.00,WNW,293,35.0,47.0,66,0.01,,,0.41,70.699997,,2013-11-14 21:22:00,
2013-11-14 12:33:00,30.0,20.0,-100.00,WNW,293,35.0,47.0,66,0.01,,,0.41,70.699997,,2013-11-14 21:33:00,
2013-11-14 12:43:00,29.0,23.0,-100.00,WNW,299,29.0,44.0,76,0.00,,,0.41,114.500000,,2013-11-14 21:43:00,
2013-11-14 13:13:00,29.0,23.0,-100.00,WNW,299,29.0,44.0,76,0.00,,,0.41,114.500000,,2013-11-14 22:13:00,
2013-11-14 13:23:00,29.0,23.0,-100.00,WNW,299,29.0,44.0,76,0.00,,,0.41,114.500000,,2013-11-14 22:23:00,
2013-11-14 13:33:00,29.0,23.0,-100.00,WNW,299,29.0,44.0,76,0.00,,,0.41,114.500000,,2013-11-14 22:33:00,
2013-11-14 13:43:00,29.0,21.0,-100.00,WNW,294,30.0,44.0,72,0.00,,,0.41,97.800003,,2013-11-14 22:43:00,
2013-11-14 14:12:00,29.0,21.0,-100.00,WNW,294,30.0,44.0,72,0.00,,,0.41,97.800003,,2013-11-14 23:12:00,
2013-11-14 14:22:00,29.0,21.0,-100.00,WNW,294,30.0,44.0,72,0.00,,,0.41,97.800003,,2013-11-14 23:22:00,
2013-11-14 14:33:00,29.0,21.0,-100.00,WNW,294,30.0,44.0,72,0.00,,,0.41,97.800003,,2013-11-14 23:33:00,
2013-11-14 15:11:00,27.0,20.0,-100.00,WNW,296,33.0,42.0,72,0.00,,,0.36,45.099998,,2013-11-15 00:11:00,
2013-11-14 15:21:00,27.0,20.0,-100.00,WNW,296,33.0,42.0,72,0.00,,,0.36,45.099998,,2013-11-15 00:21:00,
2013-11-14 15:32:00,27.0,20.0,-100.00,WNW,296,33.0,42.0,72,0.00,,,0.36,45.099998,,2013-11-15 00:32:00,
2013-11-14 15:41:00,27.0,20.0,-100.00,WNW,296,33.0,42.0,72,0.00,,,0.36,45.099998,,2013-11-15 00:41:00,
2013-11-14 16:12:00,25.0,15.0,-100.00,WNW,293,38.0,48.0,65,0.00,,,0.19,15.800000,,2013-11-15 01:12:00,
2013-11-14 16:22:00,25.0,15.0,-100.00,WNW,293,38.0,48.0,65,0.00,,,0.19,15.800000,,2013-11-15 01:22:00,
2013-11-14 16:32:00,25.0,15.0,-100.00,WNW,293,38.0,48.0,65,0.00,,,0.19,15.800000,,2013-11-15 01:32:00,
2013-11-14 16:42:00,25.0,15.0,-100.00,WNW,293,38.0,48.0,65,0.00,,,0.19,15.800000,,2013-11-15 01:42:00,
2013-11-14 17:11:00,24.0,18.0,-100.00,WNW,298,34.0,43.0,75,0.00,,,0.19,7.300000,,2013-11-15 02:11:00,
2013-11-14 17:22:00,24.0,18.0,-100.00,WNW,298,34.0,43.0,75,0.00,,,0.19,7.300000,,2013-11-15 02:22:00,
2013-11-14 17:32:00,24.0,18.0,-100.00,WNW,298,34.0,43.0,75,0.00,,,0.19,7.300000,,2013-11-15 02:32:00,
2013-11-14 17:42:00,24.0,18.0,-100.00,WNW,298,34.0,43.0,75,0.00,,,0.19,7.300000,,2013-11-15 02:42:00,
2013-11-14 17:43:00,24.0,20.0,-100.00,NW,312,36.0,44.0,87,0.00,,,0.19,0.000000,,2013-11-15 02:43:00,
2013-11-14 18:12:00,24.0,20.0,-100.00,NW,312,36.0,44.0,87,0.00,,,0.19,0.000000,,2013-11-15 03:12:00,
2013-11-14 18:21:00,24.0,20.0,-100.00,NW,312,36.0,44.0,87,0.00,,,0.19,0.000000,,2013-11-15 03:21:00,
2013-11-14 18:33:00,24.0,20.0,-100.00,NW,312,36.0,44.0,87,0.00,,,0.19,0.000000,,2013-11-15 03:33:00,
2013-11-14 19:14:00,22.0,20.0,-100.00,NW,314,27.0,50.0,94,0.00,,,0.15,0.000000,,2013-11-15 04:14:00,
2013-11-14 19:23:00,22.0,20.0,-100.00,NW,314,27.0,50.0,94,0.00,,,0.15,0.000000,,2013-11-15 04:23:00,
2013-11-14 19:33:00,22.0,20.0,-100.00,NW,314,27.0,50.0,94,0.00,,,0.15,0.000000,,2013-11-15 04:33:00,
2013-11-14 19:42:00,22.0,20.0,-100.00,NW,314,27.0,50.0,94,0.00,,,0.15,0.000000,,2013-11-15 04:42:00,
2013-11-14 19:43:00,20.0,18.0,-100.00,NW,307,34.0,40.0,91,0.00,,,0.14,0.000000,,2013-11-15 04:43:00,
2013-11-14 20:13:00,20.0,18.0,-100.00,NW,307,34.0,40.0,91,0.00,,,0.14,0.000000,,2013-11-15 05:13:00,
2013-11-14 20:22:00,20.0,18.0,-100.00,NW,307,34.0,40.0,91,0.00,,,0.14,0.000000,,2013-11-15 05:22:00,
2013-11-14 20:33:00,20.0,18.0,-100.00,NW,307,34.0,40.0,91,0.00,,,0.14,0.000000,,2013-11-15 05:33:00,
2013-11-14 20:43:00,20.0,17.0,-100.00,NW,313,38.0,42.0,91,0.00,,,0.10,0.000000,,2013-11-15 05:43:00,
2013-11-14 21:12:00,20.0,17.0,-100.00,NW,313,38.0,42.0,91,0.00,,,0.10,0.000000,,2013-11-15 06:12:00,
2013-11-14 21:23:00,20.0,17.0,-100.00,NW,313,38.0,42.0,91,0.00,,,0.10,0.000000,,2013-11-15 06:23:00,
2013-11-14 21:32:00,20.0,17.0,-100.00,NW,313,38.0,42.0,91,0.00,,,0.10,0.000000,,2013-11-15 06:32:00,
2013-11-14 22:12:00,19.0,17.0,-100.00,NW,315,38.0,44.0,90,0.00,,,0.09,0.000000,,2013-11-15 07:12:00,
2013-11-14 22:21:00,19.0,17.0,-100.00,NW,315,38.0,44.0,90,0.00,,,0.09,0.000000,,2013-11-15 07:21:00,
2013-11-14 22:32:00,19.0,17.0,-100.00,NW,315,38.0,44.0,90,0.00,,,0.09,0.000000,,2013-11-15 07:32:00,
2013-11-14 22:42:00,19.0,17.0,-100.00,NW,315,38.0,44.0,90,0.00,,,0.09,0.000000,,2013-11-15 07:42:00,
2013-11-14 23:11:00,18.0,12.0,-100.00,NW,312,40.0,45.0,75,0.00,,,0.05,0.000000,,2013-11-15 08:11:00,
2013-11-14 23:21:00,18.0,12.0,-100.00,NW,312,40.0,45.0,75,0.00,,,0.05,0.000000,,2013-11-15 08:21:00,
2013-11-14 23:32:00,18.0,12.0,-100.00,NW,312,40.0,45.0,75,0.00,,,0.05,0.000000,,2013-11-15 08:32:00,
2013-11-14 23:42:00,18.0,12.0,-100.00,NW,312,40.0,45.0,75,0.00,,,0.05,0.000000,,2013-11-15 08:42:00,
2013-11-14 23:43:00,17.0,9.0,-100.00,NW,315,29.0,44.0,70,0.00,,,0.05,0.000000,,2013-11-15 08:43:00,